Portada
METAR-TAF:

METAR-TAF

Aeropuertos :

Aeropuerto Internacional de Kosrae

Kosrae, Micronesia

latitud: 05-21N, longitud: 162-57E, altitud: 3 m

Observación

El informe se hizo hace 13 horas y 49 minutos, a las 01:55 UTC
Viento 15 kt del sur-suroeste
Temperatura 29°C
Humedad 89%
Presión 1008 hPa
Visibilidad: 16.1 km
Cielo nuboso a una altura de 1800 ft, Cumulus congestus.
Cielo nuboso a una altura de 13000 ft
Cielo cubierto a una altura de 30000 ft

METAR: PTSA 200155Z 21015KT 10SM BKN018TCU BKN130 OVC300 29/27 A2976 RMK TCU SW-N LAST

Hora: 02:44 (15:44 UTC)

Pronóstico

El informe se hizo hace 16 horas y 17 minutos, a las 23:27 UTC
Pronóstico válido del 20 a las 00 UTC al 20 a las 24 UTC
Viento 11 kt del sur-suroeste
Visibilidad: 10 km
Nubes dispersas a una altura de 1800 ft
Cielo nuboso a una altura de 13000 ft
chaparrones en las proximidades

TAF: PTSA 192327Z 2000/2024 20011KT P6SM VCSH SCT018 BKN130

Observaciones y pronósticos meteorológicos de más de 4000 aeropuertos (mensajes METAR y TAF).

Los puntos amarillos y rojos representan las estaciones disponibles.

Ponga el ratón en el punto deseado para ver el nombre de la estación.

Haga clic para ver las observaciones y los pronósticos meteorológicos.

Para cambiar el mapa : haga clic en los botones verdes con una cruz de color negro para hacer un zoom, en el botón verde con un guión para alejar o en las flechas verdes para mapas adyacentes.


METAR-TAF: